createdAt,value
2017-08-14T00:02:23.583Z,15.90
2017-08-14T00:04:51.737Z,15.80
2017-08-14T00:07:20.625Z,15.80
2017-08-14T00:09:48.786Z,15.80
2017-08-14T00:12:16.920Z,15.80
2017-08-14T00:14:45.087Z,15.70
2017-08-14T00:17:13.214Z,15.70
2017-08-14T00:19:42.117Z,15.70
2017-08-14T00:22:11.056Z,15.70
2017-08-14T00:24:39.187Z,15.70
2017-08-14T00:27:07.435Z,15.70
2017-08-14T00:29:35.568Z,15.60
2017-08-14T00:32:03.699Z,15.60
2017-08-14T00:34:31.875Z,15.60
2017-08-14T00:36:59.993Z,15.60
2017-08-14T00:39:28.112Z,15.60
2017-08-14T00:41:56.313Z,15.60
2017-08-14T00:44:24.429Z,15.60
2017-08-14T00:46:52.585Z,15.50
2017-08-14T00:49:20.706Z,15.50
2017-08-14T00:51:48.865Z,15.50
2017-08-14T00:54:17.749Z,15.50
2017-08-14T00:56:45.896Z,15.50
2017-08-14T00:59:14.056Z,15.40
2017-08-14T01:01:42.173Z,15.40
2017-08-14T01:04:10.321Z,15.40
2017-08-14T01:06:38.460Z,15.30
2017-08-14T01:09:06.615Z,15.30
2017-08-14T01:11:34.735Z,15.30
2017-08-14T01:14:02.894Z,15.30
2017-08-14T01:16:31.026Z,15.30
2017-08-14T01:18:59.177Z,15.30
2017-08-14T01:21:27.310Z,15.20
2017-08-14T01:23:55.469Z,15.20
2017-08-14T01:26:23.584Z,15.20
2017-08-14T01:28:52.486Z,15.10
2017-08-14T01:31:20.654Z,15.10
2017-08-14T01:33:48.786Z,15.10
2017-08-14T01:36:16.959Z,15.10
2017-08-14T01:38:45.092Z,15.10
2017-08-14T01:41:13.209Z,15.10
2017-08-14T01:43:41.366Z,15.10
2017-08-14T01:46:09.499Z,15.10
2017-08-14T01:48:37.649Z,15.00
2017-08-14T01:51:05.765Z,15.00
2017-08-14T01:53:33.916Z,15.00
2017-08-14T01:56:02.078Z,15.00
2017-08-14T01:58:30.207Z,14.90
2017-08-14T02:00:58.383Z,14.90
2017-08-14T02:03:26.509Z,14.90
2017-08-14T02:05:54.629Z,14.90
2017-08-14T02:08:23.569Z,14.90
2017-08-14T02:10:51.708Z,14.80
2017-08-14T02:13:19.873Z,14.90
2017-08-14T02:15:48.010Z,14.80
2017-08-14T02:18:16.164Z,14.80
2017-08-14T02:20:44.285Z,14.80
2017-08-14T02:23:13.172Z,14.80
2017-08-14T02:25:42.090Z,14.80
2017-08-14T02:28:10.209Z,14.80
2017-08-14T02:30:38.393Z,14.80
2017-08-14T02:33:07.281Z,14.80
2017-08-14T02:35:36.209Z,14.80
2017-08-14T02:38:04.328Z,14.80
2017-08-14T02:40:32.454Z,14.80
2017-08-14T02:43:00.600Z,14.80
2017-08-14T02:45:29.481Z,14.80
2017-08-14T02:47:58.409Z,14.70
2017-08-14T02:50:26.540Z,14.70
2017-08-14T02:52:55.524Z,14.70
2017-08-14T02:55:24.458Z,14.70
2017-08-14T02:57:52.582Z,14.60
2017-08-14T03:00:20.744Z,14.60
2017-08-14T03:02:48.880Z,14.60
2017-08-14T03:05:17.033Z,14.60
2017-08-14T03:07:45.165Z,14.60
2017-08-14T03:10:13.280Z,14.60
2017-08-14T03:12:41.432Z,14.60
2017-08-14T03:15:09.552Z,14.60
2017-08-14T03:17:37.701Z,14.60
2017-08-14T03:20:05.818Z,14.60
2017-08-14T03:22:33.965Z,14.60
2017-08-14T03:25:02.090Z,14.50
2017-08-14T03:27:30.209Z,14.60
2017-08-14T03:29:58.357Z,14.60
2017-08-14T03:32:26.546Z,14.50
2017-08-14T03:34:54.710Z,14.50
2017-08-14T03:37:22.845Z,14.50
2017-08-14T03:39:51.018Z,14.50
2017-08-14T03:42:19.148Z,14.50
2017-08-14T03:44:47.283Z,14.50
2017-08-14T03:47:15.429Z,14.50
2017-08-14T03:49:44.330Z,14.40
2017-08-14T03:52:12.495Z,14.40
2017-08-14T03:54:40.613Z,14.40
2017-08-14T03:57:08.746Z,14.30
2017-08-14T03:59:36.908Z,14.30
2017-08-14T04:02:05.043Z,14.30
2017-08-14T04:04:33.193Z,14.30
2017-08-14T04:07:01.324Z,14.30
2017-08-14T04:09:29.497Z,14.30
2017-08-14T04:11:57.626Z,14.30
2017-08-14T04:14:25.762Z,14.30
2017-08-14T04:16:53.909Z,14.30
2017-08-14T04:19:22.042Z,14.30
2017-08-14T04:21:50.193Z,14.30
2017-08-14T04:24:18.989Z,14.30
2017-08-14T04:26:47.144Z,14.40
2017-08-14T04:29:15.278Z,14.40
2017-08-14T04:31:43.406Z,14.30
2017-08-14T04:34:11.562Z,14.30
2017-08-14T04:36:39.680Z,14.40
2017-08-14T04:39:08.567Z,14.40
2017-08-14T04:41:37.491Z,14.40
2017-08-14T04:44:05.612Z,14.40
2017-08-14T04:46:34.553Z,14.50
2017-08-14T04:49:02.669Z,14.40
2017-08-14T04:51:30.803Z,14.40
2017-08-14T04:53:59.075Z,14.40
2017-08-14T04:56:27.206Z,14.40
2017-08-14T04:58:56.139Z,14.50
2017-08-14T05:01:24.273Z,14.50
2017-08-14T05:03:53.203Z,14.50
2017-08-14T05:06:21.324Z,14.50
2017-08-14T05:08:50.256Z,14.70
2017-08-14T05:11:18.387Z,14.60
2017-08-14T05:13:47.276Z,14.80
2017-08-14T05:16:15.429Z,14.80
2017-08-14T05:18:43.558Z,14.90
2017-08-14T05:21:11.735Z,15.00
2017-08-14T05:23:39.871Z,15.10
2017-08-14T05:26:08.009Z,15.20
2017-08-14T05:28:36.160Z,15.40
2017-08-14T05:31:04.280Z,15.50
2017-08-14T05:33:33.205Z,15.90
2017-08-14T05:36:01.332Z,15.90
2017-08-14T05:38:30.245Z,16.30
2017-08-14T05:40:58.493Z,16.20
2017-08-14T05:43:27.424Z,16.60
2017-08-14T05:45:55.559Z,16.60
2017-08-14T05:48:23.708Z,16.80
2017-08-14T05:50:51.837Z,17.00
2017-08-14T05:53:19.952Z,17.20
2017-08-14T05:55:48.101Z,17.50
2017-08-14T05:58:16.230Z,17.70
2017-08-14T06:00:44.386Z,17.90
2017-08-14T06:03:13.278Z,18.30
2017-08-14T06:05:42.165Z,18.50
2017-08-14T06:08:11.147Z,18.70
2017-08-14T06:10:40.046Z,18.90
2017-08-14T06:13:08.966Z,19.10
2017-08-14T06:15:37.085Z,19.10
2017-08-14T06:18:05.364Z,19.20
2017-08-14T06:20:33.512Z,19.40
2017-08-14T06:23:01.629Z,19.50
2017-08-14T06:25:30.555Z,19.70
2017-08-14T06:27:58.687Z,19.70
2017-08-14T06:30:27.626Z,20.00
2017-08-14T06:32:55.780Z,20.00
2017-08-14T06:35:23.925Z,20.30
2017-08-14T06:37:52.092Z,20.40
2017-08-14T06:40:20.220Z,20.70
2017-08-14T06:42:48.370Z,20.90
2017-08-14T06:45:16.490Z,21.00
2017-08-14T06:47:44.667Z,21.10
2017-08-14T06:50:13.573Z,21.40
2017-08-14T06:52:41.736Z,21.40
2017-08-14T06:55:10.668Z,21.70
2017-08-14T06:57:38.793Z,21.60
2017-08-14T07:00:07.722Z,21.70
2017-08-14T07:02:35.854Z,21.80
2017-08-14T07:05:04.741Z,22.40
2017-08-14T07:07:33.668Z,22.90
2017-08-14T07:10:01.812Z,22.80
2017-08-14T07:12:30.728Z,23.30
2017-08-14T07:14:58.873Z,23.30
2017-08-14T07:17:27.892Z,23.50
2017-08-14T07:19:56.012Z,23.90
2017-08-14T07:22:24.162Z,24.10
2017-08-14T07:24:52.293Z,24.40
2017-08-14T07:27:20.441Z,24.50
2017-08-14T07:29:49.342Z,24.90
2017-08-14T07:32:17.462Z,24.90
2017-08-14T07:34:45.613Z,25.00
2017-08-14T07:37:13.775Z,25.00
2017-08-14T07:39:41.921Z,25.20
2017-08-14T07:42:10.813Z,25.80
2017-08-14T07:44:39.072Z,25.80
2017-08-14T07:47:07.974Z,26.20
2017-08-14T07:49:36.864Z,26.00
2017-08-14T07:52:05.786Z,25.90
2017-08-14T07:54:33.909Z,25.90
2017-08-14T07:57:02.057Z,26.00
2017-08-14T07:59:30.197Z,26.20
2017-08-14T08:01:58.373Z,26.20
2017-08-14T08:04:26.507Z,26.20
2017-08-14T08:06:55.411Z,25.90
2017-08-14T08:09:23.578Z,25.90
2017-08-14T08:11:51.727Z,25.80
2017-08-14T08:14:20.659Z,25.60
2017-08-14T08:16:48.893Z,25.60
2017-08-14T08:19:17.041Z,25.60
2017-08-14T08:21:45.174Z,25.70
2017-08-14T08:24:13.356Z,25.90
2017-08-14T08:26:41.484Z,26.00
2017-08-14T08:29:09.622Z,26.20
2017-08-14T08:31:37.783Z,26.20
2017-08-14T08:34:05.918Z,26.40
2017-08-14T08:36:34.085Z,26.40
2017-08-14T08:39:02.202Z,26.50
2017-08-14T08:41:30.333Z,26.50
2017-08-14T08:43:58.502Z,26.40
2017-08-14T08:46:26.620Z,26.40
2017-08-14T08:48:54.795Z,26.50
2017-08-14T08:51:22.910Z,26.60
2017-08-14T08:53:51.030Z,26.70
2017-08-14T08:56:19.177Z,27.00
2017-08-14T08:58:47.316Z,27.40
2017-08-14T09:01:16.228Z,27.60
2017-08-14T09:03:44.467Z,27.60
2017-08-14T09:06:13.349Z,27.80
2017-08-14T09:08:41.511Z,27.80
2017-08-14T09:11:09.699Z,27.90
2017-08-14T09:13:38.624Z,28.10
2017-08-14T09:16:06.784Z,28.10
2017-08-14T09:18:34.954Z,28.10
2017-08-14T09:21:03.090Z,28.20
2017-08-14T09:23:31.279Z,28.30
2017-08-14T09:26:00.174Z,28.40
2017-08-14T09:28:29.074Z,28.40
2017-08-14T09:30:57.235Z,28.30
2017-08-14T09:33:26.124Z,28.10
2017-08-14T09:35:55.045Z,27.90
2017-08-14T09:38:23.179Z,27.90
2017-08-14T09:40:52.062Z,27.70
2017-08-14T09:43:20.208Z,27.70
2017-08-14T09:45:48.410Z,27.70
2017-08-14T09:48:17.345Z,27.70
2017-08-14T09:50:45.472Z,27.70
2017-08-14T09:53:14.370Z,27.80
2017-08-14T09:55:43.296Z,27.80
2017-08-14T09:58:11.427Z,27.80
2017-08-14T10:00:40.350Z,27.80
2017-08-14T10:03:08.483Z,27.80
2017-08-14T10:05:37.382Z,27.90
2017-08-14T10:08:06.300Z,27.80
2017-08-14T10:10:34.422Z,27.80
2017-08-14T10:13:02.591Z,27.80
2017-08-14T10:15:30.718Z,27.70
2017-08-14T10:17:58.902Z,27.60
2017-08-14T10:20:27.029Z,27.60
2017-08-14T10:22:55.158Z,27.70
2017-08-14T10:25:23.360Z,27.80
2017-08-14T10:27:52.353Z,27.80
2017-08-14T10:30:21.283Z,27.80
2017-08-14T10:32:49.419Z,27.80
2017-08-14T10:35:18.336Z,27.90
2017-08-14T10:37:46.453Z,27.90
2017-08-14T10:40:14.646Z,27.70
2017-08-14T10:42:43.530Z,27.60
2017-08-14T10:45:11.703Z,27.60
2017-08-14T10:47:40.629Z,27.50
2017-08-14T10:50:08.757Z,27.50
2017-08-14T10:52:36.937Z,27.40
2017-08-14T10:55:05.829Z,27.20
2017-08-14T10:57:34.766Z,27.10
2017-08-14T11:00:02.988Z,27.00
2017-08-14T11:02:31.928Z,26.90
2017-08-14T11:05:00.066Z,26.90
2017-08-14T11:07:28.958Z,26.70
2017-08-14T11:09:57.110Z,26.60
2017-08-14T11:12:26.034Z,26.40
2017-08-14T11:14:54.185Z,26.40
2017-08-14T11:17:23.084Z,26.30
2017-08-14T11:19:51.232Z,26.30
2017-08-14T11:22:20.119Z,26.20
2017-08-14T11:24:48.264Z,26.20
2017-08-14T11:27:16.391Z,26.10
2017-08-14T11:29:44.538Z,26.10
2017-08-14T11:32:13.453Z,26.10
2017-08-14T11:34:41.658Z,26.10
2017-08-14T11:37:09.824Z,26.00
2017-08-14T11:39:37.945Z,26.00
2017-08-14T11:42:06.888Z,25.80
2017-08-14T11:44:35.009Z,25.80
2017-08-14T11:47:03.906Z,25.70
2017-08-14T11:49:32.835Z,25.70
2017-08-14T11:52:00.975Z,25.70
2017-08-14T11:54:29.144Z,25.60
2017-08-14T11:56:57.301Z,25.60
2017-08-14T11:59:26.188Z,25.40
2017-08-14T12:01:55.122Z,25.40
2017-08-14T12:04:23.276Z,25.40
2017-08-14T12:06:51.439Z,25.50
2017-08-14T12:09:19.584Z,25.40
2017-08-14T12:11:48.510Z,25.40
2017-08-14T12:14:16.657Z,25.40
2017-08-14T12:16:45.558Z,25.30
2017-08-14T12:19:13.706Z,25.30
2017-08-14T12:21:41.848Z,25.40
2017-08-14T12:24:10.052Z,25.40
2017-08-14T12:26:39.044Z,25.30
2017-08-14T12:29:07.937Z,25.30
2017-08-14T12:31:36.865Z,25.30
2017-08-14T12:34:04.989Z,25.20
2017-08-14T12:36:33.141Z,25.20
2017-08-14T12:39:01.337Z,25.30
2017-08-14T12:41:30.327Z,25.40
2017-08-14T12:43:59.262Z,25.40
2017-08-14T12:46:27.395Z,25.40
2017-08-14T12:48:56.339Z,25.30
2017-08-14T12:51:24.499Z,25.20
2017-08-14T12:53:52.654Z,25.30
2017-08-14T12:56:20.802Z,25.30
2017-08-14T12:58:48.935Z,25.30
2017-08-14T13:01:17.098Z,25.30
2017-08-14T13:03:45.220Z,25.40
2017-08-14T13:06:14.136Z,25.40
2017-08-14T13:08:42.281Z,25.40
2017-08-14T13:11:10.544Z,25.40
2017-08-14T13:13:39.533Z,25.30
2017-08-14T13:16:08.462Z,25.30
2017-08-14T13:18:36.594Z,25.30
2017-08-14T13:21:05.482Z,25.40
2017-08-14T13:23:34.414Z,25.50
2017-08-14T13:26:02.542Z,25.40
2017-08-14T13:28:31.475Z,25.40
2017-08-14T13:30:59.619Z,25.40
2017-08-14T13:33:27.789Z,25.40
2017-08-14T13:35:56.674Z,25.50
2017-08-14T13:38:25.579Z,25.40
2017-08-14T13:40:53.741Z,25.40
2017-08-14T13:43:22.645Z,25.40
2017-08-14T13:45:50.797Z,25.40
2017-08-14T13:48:19.691Z,25.40
2017-08-14T13:50:48.611Z,25.40
2017-08-14T13:53:16.744Z,25.40
2017-08-14T13:55:45.665Z,25.40
2017-08-14T13:58:13.790Z,25.40
2017-08-14T14:00:41.919Z,25.40
2017-08-14T14:03:10.089Z,25.40
2017-08-14T14:05:38.226Z,25.40
2017-08-14T14:08:07.159Z,25.50
2017-08-14T14:10:35.283Z,25.50
2017-08-14T14:13:04.226Z,25.50
2017-08-14T14:15:32.348Z,25.50
2017-08-14T14:18:01.238Z,25.60
2017-08-14T14:20:30.171Z,25.60
2017-08-14T14:22:58.297Z,25.60
2017-08-14T14:25:27.215Z,25.70
2017-08-14T14:27:55.332Z,25.70
2017-08-14T14:30:23.493Z,25.70
2017-08-14T14:32:51.631Z,25.70
2017-08-14T14:35:19.745Z,25.70
2017-08-14T14:37:47.911Z,25.70
2017-08-14T14:40:16.039Z,25.80
2017-08-14T14:42:44.209Z,25.80
2017-08-14T14:45:12.334Z,25.80
2017-08-14T14:47:40.465Z,25.80
2017-08-14T14:50:08.627Z,25.90
2017-08-14T14:52:36.755Z,25.90
2017-08-14T14:55:04.905Z,25.90
2017-08-14T14:57:33.040Z,25.90
2017-08-14T15:00:01.202Z,25.90
2017-08-14T15:02:29.351Z,25.90
2017-08-14T15:04:58.241Z,25.90
2017-08-14T15:07:27.163Z,25.90
2017-08-14T15:09:55.281Z,25.90
2017-08-14T15:12:23.428Z,25.80
2017-08-14T15:14:51.559Z,25.80
2017-08-14T15:17:19.727Z,25.80
2017-08-14T15:19:47.854Z,25.80
2017-08-14T15:22:16.005Z,25.80
2017-08-14T15:24:44.169Z,25.80
2017-08-14T15:27:12.311Z,25.70
2017-08-14T15:29:40.510Z,25.70
2017-08-14T15:32:08.643Z,25.70
2017-08-14T15:34:37.557Z,25.70
2017-08-14T15:37:05.693Z,25.70
2017-08-14T15:39:34.593Z,25.70
2017-08-14T15:42:03.513Z,25.70
2017-08-14T15:44:31.747Z,25.70
2017-08-14T15:47:00.681Z,25.70
2017-08-14T15:49:28.800Z,25.70
2017-08-14T15:51:56.931Z,25.70
2017-08-14T15:54:25.082Z,25.70
2017-08-14T15:56:53.220Z,25.60
2017-08-14T15:59:22.212Z,25.60
2017-08-14T16:01:50.344Z,25.60
2017-08-14T16:04:18.497Z,25.60
2017-08-14T16:06:46.654Z,25.50
2017-08-14T16:09:14.773Z,25.50
2017-08-14T16:11:42.935Z,25.40
2017-08-14T16:14:11.053Z,25.40
2017-08-14T16:16:39.951Z,25.40
2017-08-14T16:19:08.106Z,25.30
2017-08-14T16:21:37.036Z,25.20
2017-08-14T16:24:05.193Z,25.20
2017-08-14T16:26:33.368Z,25.20
2017-08-14T16:29:01.494Z,25.20
2017-08-14T16:31:29.658Z,25.10
2017-08-14T16:33:57.780Z,25.00
2017-08-14T16:36:25.941Z,25.00
2017-08-14T16:38:54.075Z,24.90
2017-08-14T16:41:22.261Z,24.90
2017-08-14T16:43:51.171Z,24.90
2017-08-14T16:46:19.302Z,24.90
2017-08-14T16:48:47.466Z,24.90
2017-08-14T16:51:15.604Z,24.80
2017-08-14T16:53:43.767Z,24.80
2017-08-14T16:56:11.908Z,24.70
2017-08-14T16:58:40.846Z,24.70
2017-08-14T17:01:08.991Z,24.70
2017-08-14T17:03:37.133Z,24.70
2017-08-14T17:06:05.316Z,24.70
2017-08-14T17:08:34.214Z,24.60
2017-08-14T17:11:03.129Z,24.60
2017-08-14T17:13:31.279Z,24.50
2017-08-14T17:15:59.425Z,24.50
2017-08-14T17:18:27.550Z,24.50
2017-08-14T17:20:55.787Z,24.50
2017-08-14T17:23:24.681Z,24.50
2017-08-14T17:25:52.804Z,24.50
2017-08-14T17:28:20.976Z,24.50
2017-08-14T17:30:49.140Z,24.40
2017-08-14T17:33:17.315Z,24.40
2017-08-14T17:35:45.461Z,24.40
2017-08-14T17:38:13.593Z,24.30
2017-08-14T17:40:41.770Z,24.30
2017-08-14T17:43:10.665Z,24.20
2017-08-14T17:45:39.591Z,24.20
2017-08-14T17:48:07.713Z,24.20
2017-08-14T17:50:35.861Z,24.20
2017-08-14T17:53:03.994Z,24.10
2017-08-14T17:55:32.175Z,24.10
2017-08-14T17:58:00.322Z,24.10
2017-08-14T18:00:28.490Z,24.00
2017-08-14T18:02:57.432Z,23.90
2017-08-14T18:05:25.557Z,23.90
2017-08-14T18:07:53.817Z,23.90
2017-08-14T18:10:22.727Z,23.80
2017-08-14T18:12:52.293Z,23.80
2017-08-14T18:15:20.435Z,23.80
2017-08-14T18:17:48.603Z,23.70
2017-08-14T18:20:16.734Z,23.70
2017-08-14T18:22:45.691Z,23.60
2017-08-14T18:25:13.821Z,23.60
2017-08-14T18:27:41.949Z,23.50
2017-08-14T18:30:10.120Z,23.50
2017-08-14T18:32:38.258Z,23.40
2017-08-14T18:35:06.382Z,23.30
2017-08-14T18:37:35.336Z,23.20
2017-08-14T18:40:03.465Z,23.20
2017-08-14T18:42:31.612Z,23.20
2017-08-14T18:45:00.551Z,23.10
2017-08-14T18:47:29.884Z,23.00
2017-08-14T18:49:58.191Z,23.00
2017-08-14T18:52:26.329Z,22.90
2017-08-14T18:54:55.195Z,22.90
2017-08-14T18:57:23.354Z,22.90
2017-08-14T18:59:51.498Z,22.80
2017-08-14T19:02:19.638Z,22.70
2017-08-14T19:04:47.803Z,22.70
2017-08-14T19:07:16.057Z,22.60
2017-08-14T19:09:45.085Z,22.60
2017-08-14T19:12:12.384Z,22.50
2017-08-14T19:14:40.504Z,22.50
2017-08-14T19:17:09.436Z,22.40
2017-08-14T19:19:37.571Z,22.40
2017-08-14T19:22:06.500Z,22.30
2017-08-14T19:24:34.631Z,22.30
2017-08-14T19:27:02.813Z,22.30
2017-08-14T19:29:30.933Z,22.20
2017-08-14T19:31:59.097Z,22.10
2017-08-14T19:34:27.227Z,22.10
2017-08-14T19:36:55.370Z,22.00
2017-08-14T19:39:23.537Z,22.00
2017-08-14T19:41:51.677Z,21.90
2017-08-14T19:44:19.820Z,21.90
2017-08-14T19:46:47.979Z,21.80
2017-08-14T19:49:17.111Z,21.70
2017-08-14T19:51:45.286Z,21.70
2017-08-14T19:54:13.427Z,21.60
2017-08-14T19:56:41.560Z,21.60
2017-08-14T19:59:09.717Z,21.50
2017-08-14T20:01:37.858Z,21.40
2017-08-14T20:04:05.986Z,21.30
2017-08-14T20:06:34.924Z,21.10
2017-08-14T20:09:03.056Z,21.10
2017-08-14T20:11:31.180Z,21.00
2017-08-14T20:13:59.350Z,20.90
2017-08-14T20:16:27.471Z,20.90
2017-08-14T20:18:56.398Z,20.70
2017-08-14T20:21:24.548Z,20.70
2017-08-14T20:23:52.795Z,20.70
2017-08-14T20:26:20.926Z,20.60
2017-08-14T20:28:49.103Z,20.50
2017-08-14T20:31:17.219Z,20.40
2017-08-14T20:33:45.374Z,20.40
2017-08-14T20:36:13.529Z,20.30
2017-08-14T20:38:41.661Z,20.20
2017-08-14T20:41:09.802Z,20.20
2017-08-14T20:43:38.750Z,20.00
2017-08-14T20:46:06.883Z,20.00
2017-08-14T20:48:35.024Z,19.90
2017-08-14T20:51:03.197Z,19.80
2017-08-14T20:53:31.325Z,19.80
2017-08-14T20:55:59.460Z,19.70
2017-08-14T20:58:27.609Z,19.60
2017-08-14T21:00:55.761Z,19.50
2017-08-14T21:03:23.959Z,19.50
2017-08-14T21:05:52.109Z,19.40
2017-08-14T21:08:20.243Z,19.30
2017-08-14T21:10:48.389Z,19.20
2017-08-14T21:13:16.508Z,19.20
2017-08-14T21:15:44.687Z,19.10
2017-08-14T21:18:12.818Z,19.10
2017-08-14T21:20:41.058Z,19.00
2017-08-14T21:23:09.972Z,18.90
2017-08-14T21:25:38.100Z,18.90
2017-08-14T21:28:06.229Z,18.90
2017-08-14T21:30:34.381Z,18.80
2017-08-14T21:33:02.619Z,18.70
2017-08-14T21:35:30.804Z,18.70
2017-08-14T21:37:59.697Z,18.60
2017-08-14T21:40:28.635Z,18.60
2017-08-14T21:42:56.806Z,18.60
2017-08-14T21:45:24.939Z,18.50
2017-08-14T21:47:53.867Z,18.50
2017-08-14T21:50:22.004Z,18.50
2017-08-14T21:52:50.888Z,18.40
2017-08-14T21:55:19.804Z,18.40
2017-08-14T21:57:47.994Z,18.30
2017-08-14T22:00:16.153Z,18.30
2017-08-14T22:02:44.268Z,18.20
2017-08-14T22:05:12.436Z,18.20
2017-08-14T22:07:40.565Z,18.20
2017-08-14T22:10:08.745Z,18.10
2017-08-14T22:12:36.865Z,18.10
2017-08-14T22:15:04.986Z,18.10
2017-08-14T22:17:33.213Z,18.00
2017-08-14T22:20:02.107Z,18.00
2017-08-14T22:22:31.033Z,18.00
2017-08-14T22:24:59.181Z,17.90
2017-08-14T22:27:27.314Z,17.90
2017-08-14T22:29:55.469Z,17.90
2017-08-14T22:32:23.610Z,17.80
2017-08-14T22:34:51.732Z,17.80
2017-08-14T22:37:19.898Z,17.80
2017-08-14T22:39:48.035Z,17.80
2017-08-14T22:42:16.198Z,17.70
2017-08-14T22:44:44.331Z,17.70
2017-08-14T22:47:13.238Z,17.60
2017-08-14T22:49:41.413Z,17.60
2017-08-14T22:52:09.542Z,17.60
2017-08-14T22:54:37.665Z,17.60
2017-08-14T22:57:05.826Z,17.50
2017-08-14T22:59:33.959Z,17.50
2017-08-14T23:02:02.079Z,17.50
2017-08-14T23:04:30.233Z,17.50
2017-08-14T23:06:59.152Z,17.40
2017-08-14T23:09:28.065Z,17.40
2017-08-14T23:11:56.221Z,17.40
2017-08-14T23:14:24.340Z,17.40
2017-08-14T23:16:52.503Z,17.30
2017-08-14T23:19:20.620Z,17.30
2017-08-14T23:21:48.745Z,17.30
2017-08-14T23:24:16.924Z,17.30
2017-08-14T23:26:45.069Z,17.30
2017-08-14T23:29:13.189Z,17.30
2017-08-14T23:31:41.351Z,17.20
2017-08-14T23:34:10.245Z,17.20
2017-08-14T23:36:38.369Z,17.20
2017-08-14T23:39:06.534Z,17.20
2017-08-14T23:41:34.667Z,17.10
2017-08-14T23:44:02.825Z,17.10
2017-08-14T23:46:31.726Z,17.10
2017-08-14T23:48:59.883Z,17.00
2017-08-14T23:51:28.808Z,17.00
2017-08-14T23:53:56.929Z,17.00
2017-08-14T23:56:25.061Z,17.00
2017-08-14T23:58:53.235Z,17.00
